Time;durP1;ratioP1;P1;durP2;ratioP2;P2;SDS_P1;SDS_P2;PMS_P1;PMS_P2;Temp;Humidity;BMP_temperature;BMP_pressure;BME280_temperature;BME280_humidity;BME280_pressure;Samples;Min_cycle;Max_cycle;Signal;HPM_P1;HPM_P2
2023/12/27 00:00:05;;;;;;;3.50;2.40;;;;;;;;;;5004149;28;20485;-27
2023/12/27 00:02:32;;;;;;;3.37;2.47;;;;;;;;;;5020020;28;20242;-29
2023/12/27 00:04:59;;;;;;;2.40;2.03;;;;;;;;;;5012285;28;20231;-26
2023/12/27 00:07:26;;;;;;;4.47;2.60;;;;;;;;;;5000080;28;20207;-28
2023/12/27 00:09:55;;;;;;;4.27;2.20;;;;;;;;;;5011676;28;20215;-25
2023/12/27 00:12:22;;;;;;;2.37;2.13;;;;;;;;;;5013720;28;20208;-26
2023/12/27 00:14:49;;;;;;;2.90;2.13;;;;;;;;;;5003622;28;20228;-28
2023/12/27 00:17:16;;;;;;;3.40;2.20;;;;;;;;;;5014700;28;20207;-28
2023/12/27 00:19:43;;;;;;;2.60;2.40;;;;;;;;;;5016638;28;20218;-27
2023/12/27 00:22:11;;;;;;;3.67;2.80;;;;;;;;;;4998379;28;20202;-28
2023/12/27 00:24:38;;;;;;;3.30;2.50;;;;;;;;;;5008516;28;20227;-29
2023/12/27 00:27:06;;;;;;;4.43;2.63;;;;;;;;;;5015245;28;20454;-25
2023/12/27 00:29:34;;;;;;;5.00;2.70;;;;;;;;;;5015286;28;20282;-26
2023/12/27 00:32:01;;;;;;;4.10;2.70;;;;;;;;;;5007174;28;20219;-27
2023/12/27 00:34:28;;;;;;;2.40;2.20;;;;;;;;;;5017349;28;20237;-26
2023/12/27 00:36:55;;;;;;;3.53;2.17;;;;;;;;;;4999137;28;20254;-28
2023/12/27 00:39:23;;;;;;;5.47;2.27;;;;;;;;;;5008353;28;20213;-28
2023/12/27 00:41:52;;;;;;;3.50;2.30;;;;;;;;;;5012280;28;20211;-25
2023/12/27 00:44:20;;;;;;;5.00;2.30;;;;;;;;;;5021134;28;20245;-27
2023/12/27 00:46:48;;;;;;;3.37;2.87;;;;;;;;;;5006897;28;20210;-27
2023/12/27 00:49:15;;;;;;;4.80;2.70;;;;;;;;;;5008060;28;20211;-28
2023/12/27 00:51:42;;;;;;;2.33;2.13;;;;;;;;;;5000854;28;20283;-25
2023/12/27 00:54:09;;;;;;;3.90;2.60;;;;;;;;;;5010698;28;20234;-28
2023/12/27 00:56:37;;;;;;;6.80;2.57;;;;;;;;;;5007806;28;20273;-29
2023/12/27 00:59:04;;;;;;;4.87;2.00;;;;;;;;;;5013676;28;20219;-28
2023/12/27 01:01:32;;;;;;;2.83;2.30;;;;;;;;;;5007944;28;20229;-27
2023/12/27 01:03:59;;;;;;;5.80;2.67;;;;;;;;;;5004935;28;20208;-27
2023/12/27 01:06:26;;;;;;;2.97;2.30;;;;;;;;;;5001197;28;20207;-28
2023/12/27 01:08:54;;;;;;;5.90;2.50;;;;;;;;;;5010371;28;20211;-27
2023/12/27 01:11:21;;;;;;;3.23;2.47;;;;;;;;;;5010843;28;20234;-26
2023/12/27 01:13:48;;;;;;;3.40;2.13;;;;;;;;;;5003494;28;20415;-28
2023/12/27 01:16:15;;;;;;;6.60;3.17;;;;;;;;;;5016705;28;20266;-28
2023/12/27 01:18:44;;;;;;;3.90;2.73;;;;;;;;;;5009248;28;20215;-26
2023/12/27 01:21:13;;;;;;;2.60;2.40;;;;;;;;;;5007690;28;20295;-25
2023/12/27 01:23:41;;;;;;;3.47;3.00;;;;;;;;;;5006345;28;20211;-29
2023/12/27 01:26:08;;;;;;;4.70;3.03;;;;;;;;;;5017515;28;20237;-28
2023/12/27 01:28:35;;;;;;;4.20;2.30;;;;;;;;;;5007731;28;20207;-28
2023/12/27 01:31:02;;;;;;;2.47;2.27;;;;;;;;;;5003096;28;20211;-28
2023/12/27 01:33:30;;;;;;;3.57;2.57;;;;;;;;;;5014423;28;20214;-28
2023/12/27 01:35:58;;;;;;;4.70;2.47;;;;;;;;;;5013389;28;20238;-26
2023/12/27 01:38:25;;;;;;;2.67;1.90;;;;;;;;;;5008610;28;20214;-26
2023/12/27 01:40:53;;;;;;;2.30;2.10;;;;;;;;;;5016100;28;20223;-28
2023/12/27 01:43:20;;;;;;;3.33;1.90;;;;;;;;;;5002191;28;20211;-27
2023/12/27 01:45:48;;;;;;;2.77;2.40;;;;;;;;;;4998787;28;20258;-28
2023/12/27 01:48:15;;;;;;;4.20;2.47;;;;;;;;;;5007876;28;20207;-27
2023/12/27 01:50:42;;;;;;;2.73;2.33;;;;;;;;;;5017338;28;20202;-28
2023/12/27 01:53:11;;;;;;;4.30;2.60;;;;;;;;;;5013651;28;20215;-26
2023/12/27 01:55:38;;;;;;;4.50;2.47;;;;;;;;;;5015123;28;20227;-28
2023/12/27 01:58:08;;;;;;;3.73;2.27;;;;;;;;;;4999451;28;20208;-26
2023/12/27 02:00:36;;;;;;;3.27;2.40;;;;;;;;;;5005720;28;20281;-28
2023/12/27 02:03:03;;;;;;;4.33;2.40;;;;;;;;;;5006018;28;20213;-30
2023/12/27 02:05:31;;;;;;;2.80;2.33;;;;;;;;;;5021693;28;20231;-27
2023/12/27 02:07:59;;;;;;;2.67;2.27;;;;;;;;;;4992633;28;20214;-27
2023/12/27 02:10:28;;;;;;;3.07;2.43;;;;;;;;;;5016241;28;20209;-26
2023/12/27 02:12:55;;;;;;;3.70;2.43;;;;;;;;;;5006018;28;20212;-28
2023/12/27 02:15:22;;;;;;;4.17;2.73;;;;;;;;;;5008084;28;20226;-26
2023/12/27 02:17:50;;;;;;;5.23;2.70;;;;;;;;;;5015076;28;20207;-26
2023/12/27 02:20:18;;;;;;;4.43;2.40;;;;;;;;;;5006625;28;20217;-28
2023/12/27 02:22:46;;;;;;;2.63;2.20;;;;;;;;;;5006590;28;20202;-28
2023/12/27 02:25:14;;;;;;;2.47;2.27;;;;;;;;;;5016430;28;20227;-26
2023/12/27 02:27:42;;;;;;;3.87;2.53;;;;;;;;;;5015881;28;20286;-26
2023/12/27 02:30:09;;;;;;;4.87;2.30;;;;;;;;;;5017347;28;20216;-28
2023/12/27 02:32:36;;;;;;;4.00;2.40;;;;;;;;;;5005366;28;20305;-28
2023/12/27 02:35:03;;;;;;;4.23;2.70;;;;;;;;;;5000281;28;20215;-26
2023/12/27 02:37:31;;;;;;;2.17;1.97;;;;;;;;;;5000759;28;20286;-27
2023/12/27 02:39:59;;;;;;;4.50;3.03;;;;;;;;;;5018352;28;20218;-28
2023/12/27 02:42:27;;;;;;;4.80;2.40;;;;;;;;;;5026135;28;20226;-27
2023/12/27 02:44:54;;;;;;;3.37;2.63;;;;;;;;;;5003882;28;20240;-28
2023/12/27 02:47:21;;;;;;;6.47;3.37;;;;;;;;;;5004056;28;20247;-25
2023/12/27 02:49:49;;;;;;;2.37;2.17;;;;;;;;;;5004432;28;20208;-26
2023/12/27 02:52:16;;;;;;;4.60;2.43;;;;;;;;;;5007397;28;20217;-27
2023/12/27 02:54:43;;;;;;;3.07;2.60;;;;;;;;;;5006636;28;20227;-28
2023/12/27 02:57:10;;;;;;;2.80;1.90;;;;;;;;;;5019629;28;20212;-25
2023/12/27 02:59:38;;;;;;;3.63;2.53;;;;;;;;;;5005633;28;20302;-29
2023/12/27 03:02:06;;;;;;;5.97;2.43;;;;;;;;;;5016004;28;20213;-26
2023/12/27 03:04:33;;;;;;;2.40;2.20;;;;;;;;;;5023069;28;20230;-28
2023/12/27 03:07:00;;;;;;;2.60;2.40;;;;;;;;;;5002031;28;20276;-30
2023/12/27 03:09:28;;;;;;;3.93;1.90;;;;;;;;;;5008716;28;20274;-26
2023/12/27 03:11:55;;;;;;;4.17;2.30;;;;;;;;;;5003567;28;20207;-27
2023/12/27 03:14:22;;;;;;;4.67;2.43;;;;;;;;;;5021278;28;20250;-28
2023/12/27 03:16:51;;;;;;;3.87;2.20;;;;;;;;;;5008188;28;20314;-28
2023/12/27 03:19:18;;;;;;;3.07;2.00;;;;;;;;;;5009356;28;20257;-28
2023/12/27 03:21:45;;;;;;;2.20;1.97;;;;;;;;;;5002292;28;20637;-27
2023/12/27 03:24:12;;;;;;;2.33;2.13;;;;;;;;;;5021536;28;20254;-28
2023/12/27 03:26:39;;;;;;;2.67;2.23;;;;;;;;;;5017195;28;20227;-26
2023/12/27 03:29:07;;;;;;;2.83;2.40;;;;;;;;;;5027745;28;20215;-28
2023/12/27 03:31:34;;;;;;;4.17;2.17;;;;;;;;;;5001079;28;20210;-26
2023/12/27 03:34:02;;;;;;;2.30;1.87;;;;;;;;;;5018038;28;20322;-28
2023/12/27 03:36:29;;;;;;;7.30;2.23;;;;;;;;;;5011059;28;20203;-28
2023/12/27 03:38:57;;;;;;;3.63;2.70;;;;;;;;;;5021211;28;20325;-28
2023/12/27 03:41:24;;;;;;;4.17;2.57;;;;;;;;;;5018286;28;20282;-26
2023/12/27 03:43:54;;;;;;;2.63;2.40;;;;;;;;;;5025500;28;20643;-28
2023/12/27 03:46:21;;;;;;;4.47;2.60;;;;;;;;;;5007090;28;20219;-26
2023/12/27 03:48:49;;;;;;;2.97;2.37;;;;;;;;;;5022450;28;20608;-27
2023/12/27 03:51:20;;;;;;;2.43;1.90;;;;;;;;;;5018348;28;20295;-26
2023/12/27 03:53:47;;;;;;;4.10;2.00;;;;;;;;;;5006390;28;20203;-27
2023/12/27 03:56:14;;;;;;;3.47;2.20;;;;;;;;;;5019601;28;20210;-28
2023/12/27 03:58:43;;;;;;;3.37;2.20;;;;;;;;;;5015545;28;20211;-28
2023/12/27 04:01:10;;;;;;;3.57;2.33;;;;;;;;;;5001571;28;20212;-26
2023/12/27 04:03:37;;;;;;;2.30;2.10;;;;;;;;;;5030692;28;20195;-27
2023/12/27 04:06:05;;;;;;;4.07;2.60;;;;;;;;;;5004165;28;20223;-28
2023/12/27 04:08:33;;;;;;;4.20;2.37;;;;;;;;;;5021410;28;20232;-28
2023/12/27 04:11:00;;;;;;;2.97;2.40;;;;;;;;;;5022224;28;20302;-28
2023/12/27 04:13:27;;;;;;;2.97;2.50;;;;;;;;;;5016982;28;20214;-28
2023/12/27 04:15:55;;;;;;;2.60;2.40;;;;;;;;;;5004261;28;20314;-26
2023/12/27 04:18:22;;;;;;;3.97;2.13;;;;;;;;;;5004185;28;20592;-27
2023/12/27 04:20:49;;;;;;;4.43;1.90;;;;;;;;;;5018231;28;20297;-27
2023/12/27 04:23:16;;;;;;;3.53;2.40;;;;;;;;;;5010958;28;20222;-27
2023/12/27 04:25:45;;;;;;;2.10;1.90;;;;;;;;;;5017674;28;20250;-28
2023/12/27 04:28:11;;;;;;;5.13;2.27;;;;;;;;;;5025492;28;20220;-27
2023/12/27 04:30:38;;;;;;;3.23;1.80;;;;;;;;;;5010713;28;20203;-29
2023/12/27 04:33:06;;;;;;;3.30;2.20;;;;;;;;;;5009694;28;20215;-26
2023/12/27 04:35:33;;;;;;;3.53;2.03;;;;;;;;;;5027403;28;20354;-27
2023/12/27 04:38:00;;;;;;;6.63;2.27;;;;;;;;;;5001518;28;20541;-28
2023/12/27 04:40:28;;;;;;;5.43;2.30;;;;;;;;;;5019230;28;20202;-28
2023/12/27 04:42:57;;;;;;;2.40;2.20;;;;;;;;;;5020687;28;20222;-29
2023/12/27 04:45:24;;;;;;;2.50;2.23;;;;;;;;;;5000803;28;20232;-28
2023/12/27 04:47:51;;;;;;;3.40;2.47;;;;;;;;;;5014131;28;20218;-29
2023/12/27 04:50:19;;;;;;;3.87;2.20;;;;;;;;;;5018571;28;20325;-27
2023/12/27 04:52:46;;;;;;;3.93;2.67;;;;;;;;;;5002385;28;20282;-30
2023/12/27 04:55:13;;;;;;;2.50;2.30;;;;;;;;;;5016202;28;20263;-28
2023/12/27 04:57:40;;;;;;;3.93;2.37;;;;;;;;;;5015300;28;20211;-28
2023/12/27 05:00:09;;;;;;;3.37;1.80;;;;;;;;;;5012638;28;20214;-28
2023/12/27 05:02:36;;;;;;;2.50;2.30;;;;;;;;;;5015388;28;20234;-25
2023/12/27 05:05:04;;;;;;;2.90;2.23;;;;;;;;;;5020503;28;20261;-26
2023/12/27 05:07:31;;;;;;;3.07;2.23;;;;;;;;;;5002983;28;20232;-25
2023/12/27 05:09:58;;;;;;;5.27;2.23;;;;;;;;;;5010504;28;20222;-27
2023/12/27 05:12:26;;;;;;;2.80;2.13;;;;;;;;;;5027029;28;20207;-26
2023/12/27 05:14:53;;;;;;;2.07;1.97;;;;;;;;;;5009361;28;20314;-29
2023/12/27 05:17:23;;;;;;;4.03;2.40;;;;;;;;;;5016106;28;20573;-28
2023/12/27 05:19:50;;;;;;;2.13;2.00;;;;;;;;;;5016488;28;20218;-29
2023/12/27 05:22:19;;;;;;;2.90;2.60;;;;;;;;;;5005370;28;20214;-28
2023/12/27 05:24:46;;;;;;;3.63;2.13;;;;;;;;;;5012637;28;20325;-28
2023/12/27 05:27:13;;;;;;;4.70;2.60;;;;;;;;;;5025116;28;20230;-27
2023/12/27 05:29:40;;;;;;;4.13;2.40;;;;;;;;;;5013596;28;20233;-26
2023/12/27 05:32:07;;;;;;;3.67;2.17;;;;;;;;;;4992697;28;20225;-27
2023/12/27 05:34:36;;;;;;;2.90;2.23;;;;;;;;;;5001060;28;20228;-28
2023/12/27 05:37:03;;;;;;;2.40;2.20;;;;;;;;;;4997004;28;20219;-27
2023/12/27 05:39:30;;;;;;;3.57;2.80;;;;;;;;;;5024929;28;20206;-27
2023/12/27 05:41:57;;;;;;;2.57;2.13;;;;;;;;;;5022840;28;20211;-28
2023/12/27 05:44:24;;;;;;;2.67;1.87;;;;;;;;;;5012031;28;20310;-26
2023/12/27 05:46:58;;;;;;;2.50;2.30;;;;;;;;;;4997233;28;20231;-28
2023/12/27 05:49:25;;;;;;;3.97;3.67;;;;;;;;;;5008323;28;20215;-27
2023/12/27 05:51:54;;;;;;;5.07;3.60;;;;;;;;;;5008362;28;20210;-25
2023/12/27 05:54:21;;;;;;;5.13;3.77;;;;;;;;;;5013680;28;20230;-27
2023/12/27 05:56:49;;;;;;;7.90;4.20;;;;;;;;;;5022616;28;20230;-28
2023/12/27 05:59:17;;;;;;;9.27;8.47;;;;;;;;;;5002363;28;20207;-28
2023/12/27 06:01:48;;;;;;;10.27;9.47;;;;;;;;;;4999483;28;20268;-27
2023/12/27 06:04:16;;;;;;;8.40;7.53;;;;;;;;;;5010847;28;20261;-29
2023/12/27 06:06:43;;;;;;;8.23;7.63;;;;;;;;;;5005874;28;20234;-28
2023/12/27 06:09:12;;;;;;;6.90;5.57;;;;;;;;;;5009154;28;20211;-29
2023/12/27 06:11:39;;;;;;;3.87;3.47;;;;;;;;;;5005277;28;20207;-28
2023/12/27 06:14:06;;;;;;;6.87;6.27;;;;;;;;;;5029989;28;20234;-27
2023/12/27 06:16:33;;;;;;;3.63;3.27;;;;;;;;;;5010762;28;20309;-28
2023/12/27 06:19:01;;;;;;;5.50;5.00;;;;;;;;;;5021377;28;20217;-27
2023/12/27 06:21:29;;;;;;;7.17;5.53;;;;;;;;;;5006187;28;20309;-26
2023/12/27 06:23:56;;;;;;;6.13;5.53;;;;;;;;;;5012522;28;20290;-26
2023/12/27 06:26:25;;;;;;;4.13;3.73;;;;;;;;;;5021587;28;20318;-28
2023/12/27 06:28:52;;;;;;;5.23;4.73;;;;;;;;;;5017500;28;20199;-29
2023/12/27 06:31:19;;;;;;;6.60;5.03;;;;;;;;;;5003699;28;20291;-29
2023/12/27 06:33:46;;;;;;;3.77;3.47;;;;;;;;;;5023030;28;20218;-29
2023/12/27 06:36:14;;;;;;;3.27;2.97;;;;;;;;;;5012964;28;20195;-30
2023/12/27 06:38:41;;;;;;;2.53;2.33;;;;;;;;;;5007755;28;20245;-26
2023/12/27 06:41:08;;;;;;;4.13;3.33;;;;;;;;;;5019677;28;20214;-28
2023/12/27 06:43:36;;;;;;;2.70;2.50;;;;;;;;;;5014130;28;20207;-26
2023/12/27 06:46:04;;;;;;;3.40;2.67;;;;;;;;;;5019640;28;20228;-26
2023/12/27 06:48:31;;;;;;;3.27;2.30;;;;;;;;;;5001319;28;20204;-26
2023/12/27 06:50:58;;;;;;;3.00;2.60;;;;;;;;;;5021452;28;20666;-26
2023/12/27 06:53:25;;;;;;;3.13;2.90;;;;;;;;;;5007908;28;20215;-27
2023/12/27 06:55:52;;;;;;;3.07;2.77;;;;;;;;;;5019485;28;20226;-27
2023/12/27 06:58:19;;;;;;;3.00;2.70;;;;;;;;;;5011275;28;20195;-27
2023/12/27 07:00:47;;;;;;;3.00;2.70;;;;;;;;;;5011492;28;20298;-27
2023/12/27 07:03:15;;;;;;;2.87;2.67;;;;;;;;;;5010733;28;20217;-27
2023/12/27 07:05:42;;;;;;;2.90;2.30;;;;;;;;;;5010642;28;20229;-29
2023/12/27 07:08:09;;;;;;;4.00;2.40;;;;;;;;;;5004217;28;20227;-27
2023/12/27 07:10:36;;;;;;;3.47;2.20;;;;;;;;;;5033428;28;20637;-28
2023/12/27 07:13:03;;;;;;;2.50;2.30;;;;;;;;;;5025926;28;20198;-26
2023/12/27 07:15:31;;;;;;;3.37;2.50;;;;;;;;;;5010135;28;20591;-27
2023/12/27 07:17:59;;;;;;;4.33;2.47;;;;;;;;;;5016762;28;20235;-25
2023/12/27 07:20:27;;;;;;;3.93;2.63;;;;;;;;;;5013432;28;20302;-28
2023/12/27 07:22:56;;;;;;;2.87;2.57;;;;;;;;;;5006161;28;20203;-25
2023/12/27 07:25:23;;;;;;;2.93;2.50;;;;;;;;;;5012815;28;20281;-28
2023/12/27 07:27:52;;;;;;;3.73;2.40;;;;;;;;;;5014229;28;20226;-27
2023/12/27 07:30:19;;;;;;;3.67;2.73;;;;;;;;;;5018206;28;20199;-26
2023/12/27 07:32:46;;;;;;;3.53;2.93;;;;;;;;;;5009882;28;20210;-27
2023/12/27 07:35:15;;;;;;;4.07;3.20;;;;;;;;;;5026410;28;20290;-26
2023/12/27 07:37:42;;;;;;;4.13;2.57;;;;;;;;;;5001541;28;20238;-26
2023/12/27 07:40:10;;;;;;;2.90;2.57;;;;;;;;;;5009751;28;20203;-27
2023/12/27 07:42:37;;;;;;;3.17;2.43;;;;;;;;;;5013090;28;20221;-27
2023/12/27 07:45:06;;;;;;;3.57;2.20;;;;;;;;;;5006615;28;20238;-27
2023/12/27 07:47:33;;;;;;;3.23;2.40;;;;;;;;;;5013826;28;20229;-26
2023/12/27 07:50:01;;;;;;;3.90;2.50;;;;;;;;;;5025169;28;20226;-27
2023/12/27 07:52:29;;;;;;;4.70;2.80;;;;;;;;;;5007835;28;20259;-26
2023/12/27 07:54:58;;;;;;;3.07;2.60;;;;;;;;;;5018605;28;20236;-29
2023/12/27 07:57:25;;;;;;;4.20;2.13;;;;;;;;;;5015946;28;20227;-28
2023/12/27 07:59:55;;;;;;;3.67;2.20;;;;;;;;;;5013591;28;20486;-28
2023/12/27 08:02:23;;;;;;;5.07;3.30;;;;;;;;;;5005556;28;20210;-27
2023/12/27 08:04:50;;;;;;;4.10;3.20;;;;;;;;;;5017428;28;20218;-27
2023/12/27 08:07:18;;;;;;;2.63;2.43;;;;;;;;;;5011649;28;20219;-27
2023/12/27 08:09:46;;;;;;;3.97;2.53;;;;;;;;;;5013644;28;20204;-25
2023/12/27 08:12:13;;;;;;;4.40;2.77;;;;;;;;;;5013206;28;20218;-27
2023/12/27 08:14:40;;;;;;;4.10;2.27;;;;;;;;;;5015519;28;20223;-27
2023/12/27 08:17:08;;;;;;;3.40;2.27;;;;;;;;;;5003312;28;20201;-26
2023/12/27 08:19:36;;;;;;;3.60;2.73;;;;;;;;;;5020909;28;20309;-28
2023/12/27 08:22:04;;;;;;;3.90;2.80;;;;;;;;;;5006709;28;20216;-29
2023/12/27 08:24:31;;;;;;;7.93;2.93;;;;;;;;;;5005057;28;20223;-26
2023/12/27 08:27:00;;;;;;;2.93;2.27;;;;;;;;;;5012126;28;20334;-28
2023/12/27 08:29:27;;;;;;;4.03;2.70;;;;;;;;;;5013765;28;20209;-28
2023/12/27 08:31:54;;;;;;;2.77;2.37;;;;;;;;;;4999537;28;20208;-27
2023/12/27 08:34:21;;;;;;;3.43;2.70;;;;;;;;;;4999513;28;20234;-27
2023/12/27 08:36:48;;;;;;;2.73;2.40;;;;;;;;;;4994907;28;20206;-27
2023/12/27 08:39:16;;;;;;;5.40;2.40;;;;;;;;;;5021300;28;20264;-27
2023/12/27 08:41:43;;;;;;;2.60;2.40;;;;;;;;;;5021243;28;20203;-27
2023/12/27 08:44:12;;;;;;;3.00;2.57;;;;;;;;;;5003942;28;20230;-28
2023/12/27 08:46:40;;;;;;;2.47;2.27;;;;;;;;;;5019329;28;20211;-27
2023/12/27 08:49:07;;;;;;;3.07;2.70;;;;;;;;;;5017055;28;20203;-26
2023/12/27 08:51:35;;;;;;;5.50;2.57;;;;;;;;;;5013451;28;20210;-25
2023/12/27 08:54:02;;;;;;;3.67;2.70;;;;;;;;;;5012087;28;20229;-27
2023/12/27 08:56:30;;;;;;;2.97;2.70;;;;;;;;;;5021011;28;20304;-26
2023/12/27 08:58:57;;;;;;;2.87;2.50;;;;;;;;;;5024572;28;20294;-26
2023/12/27 09:01:25;;;;;;;2.93;2.40;;;;;;;;;;5011256;28;20569;-28
2023/12/27 09:03:52;;;;;;;2.87;2.60;;;;;;;;;;5004699;28;20522;-27
2023/12/27 09:06:20;;;;;;;3.93;2.87;;;;;;;;;;5011124;28;20279;-27
2023/12/27 09:08:49;;;;;;;3.23;2.30;;;;;;;;;;5007092;28;20261;-27
2023/12/27 09:11:18;;;;;;;3.33;2.57;;;;;;;;;;5020411;28;20207;-25
2023/12/27 09:13:45;;;;;;;4.10;2.53;;;;;;;;;;5011632;28;20219;-29
2023/12/27 09:16:12;;;;;;;6.43;3.60;;;;;;;;;;5008019;28;20210;-27
2023/12/27 09:18:41;;;;;;;5.23;2.90;;;;;;;;;;5011974;28;20218;-29
2023/12/27 09:21:08;;;;;;;3.60;2.80;;;;;;;;;;5005997;28;20226;-29
2023/12/27 09:23:35;;;;;;;4.07;2.97;;;;;;;;;;5004844;28;20211;-28
2023/12/27 09:26:02;;;;;;;4.03;3.03;;;;;;;;;;5012017;28;20664;-28
2023/12/27 09:28:30;;;;;;;4.90;3.00;;;;;;;;;;5011584;28;20223;-28
2023/12/27 09:30:58;;;;;;;4.97;2.53;;;;;;;;;;5013659;28;20294;-27
2023/12/27 09:33:25;;;;;;;4.73;2.87;;;;;;;;;;5010776;28;20847;-27
2023/12/27 09:35:53;;;;;;;4.07;3.00;;;;;;;;;;4997208;28;20251;-28
2023/12/27 09:38:20;;;;;;;5.67;3.30;;;;;;;;;;4998134;28;20204;-26
2023/12/27 09:40:48;;;;;;;4.43;2.50;;;;;;;;;;5021868;28;20213;-26
2023/12/27 09:43:15;;;;;;;4.27;2.70;;;;;;;;;;5016194;28;20294;-29
2023/12/27 09:45:43;;;;;;;4.00;2.60;;;;;;;;;;5006375;28;20230;-28
2023/12/27 09:48:11;;;;;;;3.60;2.47;;;;;;;;;;5007841;28;20214;-26
2023/12/27 09:50:39;;;;;;;7.00;3.10;;;;;;;;;;5019446;28;20208;-28
2023/12/27 09:53:11;;;;;;;5.27;3.07;;;;;;;;;;4998883;28;20216;-27
2023/12/27 09:55:38;;;;;;;5.33;3.10;;;;;;;;;;5009506;28;20231;-28
2023/12/27 09:58:06;;;;;;;4.23;2.73;;;;;;;;;;5011727;28;20207;-28
2023/12/27 10:00:34;;;;;;;4.87;2.87;;;;;;;;;;5010532;28;20222;-27
2023/12/27 10:03:05;;;;;;;3.97;3.00;;;;;;;;;;5006839;28;20203;-26
2023/12/27 10:05:39;;;;;;;4.53;3.10;;;;;;;;;;5021663;28;20241;-28
2023/12/27 10:08:07;;;;;;;7.20;3.30;;;;;;;;;;5003323;28;20219;-26
2023/12/27 10:10:36;;;;;;;4.03;3.40;;;;;;;;;;5011159;28;20223;-28
2023/12/27 10:13:04;;;;;;;5.60;3.37;;;;;;;;;;5024184;28;20214;-26
2023/12/27 10:15:31;;;;;;;5.53;2.97;;;;;;;;;;5017731;28;20230;-26
2023/12/27 10:17:58;;;;;;;5.03;2.77;;;;;;;;;;5002939;28;20213;-27
2023/12/27 10:20:32;;;;;;;4.07;3.17;;;;;;;;;;5014267;28;20249;-28
2023/12/27 10:23:00;;;;;;;5.33;3.43;;;;;;;;;;4995157;28;20210;-26
2023/12/27 10:25:29;;;;;;;3.87;3.30;;;;;;;;;;5010540;28;20230;-27
2023/12/27 10:27:56;;;;;;;5.33;2.97;;;;;;;;;;5006457;28;20321;-27
2023/12/27 10:30:24;;;;;;;5.50;3.20;;;;;;;;;;5019945;28;20208;-28
2023/12/27 10:32:57;;;;;;;3.13;2.53;;;;;;;;;;5004982;28;20222;-27
2023/12/27 10:35:25;;;;;;;4.83;2.50;;;;;;;;;;5018532;28;20261;-29
2023/12/27 10:37:59;;;;;;;5.93;3.23;;;;;;;;;;5002739;28;20207;-29
2023/12/27 10:40:27;;;;;;;4.03;2.50;;;;;;;;;;5011214;28;20207;-26
2023/12/27 10:42:55;;;;;;;3.90;2.63;;;;;;;;;;5025519;28;20265;-28
2023/12/27 10:45:23;;;;;;;3.20;2.40;;;;;;;;;;5009295;28;20233;-27
2023/12/27 10:47:53;;;;;;;2.83;2.50;;;;;;;;;;5024694;28;20229;-28
2023/12/27 10:50:21;;;;;;;7.00;2.37;;;;;;;;;;5023876;28;20213;-25
2023/12/27 10:52:50;;;;;;;4.50;2.60;;;;;;;;;;4998296;28;20290;-28
2023/12/27 10:55:20;;;;;;;6.73;2.63;;;;;;;;;;5011290;28;20306;-28
2023/12/27 10:57:51;;;;;;;2.93;2.17;;;;;;;;;;5023441;28;20211;-27
2023/12/27 11:00:20;;;;;;;2.10;1.73;;;;;;;;;;5010019;28;20203;-27
2023/12/27 11:02:48;;;;;;;2.13;1.87;;;;;;;;;;5011845;28;20226;-26
2023/12/27 11:05:16;;;;;;;4.93;2.43;;;;;;;;;;5014500;28;20322;-26
2023/12/27 11:07:44;;;;;;;3.33;2.10;;;;;;;;;;5008767;28;20238;-25
2023/12/27 11:10:12;;;;;;;2.63;2.00;;;;;;;;;;5014874;28;20930;-28
2023/12/27 11:12:40;;;;;;;2.73;1.70;;;;;;;;;;5015046;28;20211;-29
2023/12/27 11:15:08;;;;;;;2.40;1.70;;;;;;;;;;5015327;28;20223;-26
2023/12/27 11:17:37;;;;;;;4.10;2.20;;;;;;;;;;5018188;28;20213;-26
2023/12/27 11:20:05;;;;;;;3.00;1.87;;;;;;;;;;5014665;28;20203;-26
2023/12/27 11:22:32;;;;;;;3.63;2.10;;;;;;;;;;4999745;28;20216;-27
2023/12/27 11:25:00;;;;;;;3.23;2.33;;;;;;;;;;5014925;28;20298;-29
2023/12/27 11:27:27;;;;;;;2.27;2.00;;;;;;;;;;5032938;28;20305;-25
2023/12/27 11:29:55;;;;;;;2.37;1.70;;;;;;;;;;5016288;28;20211;-28
2023/12/27 11:32:22;;;;;;;1.87;1.63;;;;;;;;;;5015482;28;20211;-29
2023/12/27 11:34:51;;;;;;;2.83;1.87;;;;;;;;;;5015119;28;20227;-28
2023/12/27 11:37:18;;;;;;;4.43;2.07;;;;;;;;;;5004199;28;20207;-28
2023/12/27 11:39:48;;;;;;;2.93;2.00;;;;;;;;;;5013405;28;20314;-26
2023/12/27 11:42:16;;;;;;;2.87;2.20;;;;;;;;;;5014536;28;20207;-28
2023/12/27 11:44:48;;;;;;;4.63;2.20;;;;;;;;;;5006001;28;20230;-27
2023/12/27 11:47:16;;;;;;;6.60;1.80;;;;;;;;;;5012804;28;20199;-25
2023/12/27 11:49:44;;;;;;;5.30;1.97;;;;;;;;;;5013523;28;20238;-28
2023/12/27 11:52:13;;;;;;;4.30;1.80;;;;;;;;;;5009870;28;20208;-28
2023/12/27 11:54:41;;;;;;;2.60;1.97;;;;;;;;;;5007046;28;20337;-27
2023/12/27 11:57:10;;;;;;;4.10;2.30;;;;;;;;;;5019421;28;20199;-28
2023/12/27 11:59:37;;;;;;;2.47;1.80;;;;;;;;;;5014742;28;20210;-29
2023/12/27 12:02:05;;;;;;;3.80;2.00;;;;;;;;;;5015336;28;20214;-29
2023/12/27 12:04:52;;;;;;;2.43;1.70;;;;;;;;;;5015220;28;20241;-28
2023/12/27 12:07:31;;;;;;;4.10;1.80;;;;;;;;;;4996609;28;20204;-27
2023/12/27 12:09:58;;;;;;;4.80;1.57;;;;;;;;;;5017927;28;20231;-26
2023/12/27 12:12:26;;;;;;;2.67;1.50;;;;;;;;;;5012111;28;20199;-28
2023/12/27 12:14:54;;;;;;;3.57;1.90;;;;;;;;;;5005038;28;20235;-27
2023/12/27 12:17:21;;;;;;;3.33;1.90;;;;;;;;;;5016179;28;20209;-28
2023/12/27 12:19:49;;;;;;;1.90;1.70;;;;;;;;;;5021715;28;20203;-25
2023/12/27 12:22:17;;;;;;;2.77;1.67;;;;;;;;;;5017053;28;20207;-25
2023/12/27 12:24:46;;;;;;;4.13;1.73;;;;;;;;;;5023501;28;20230;-27
2023/12/27 12:27:14;;;;;;;1.80;1.70;;;;;;;;;;5017592;28;20206;-29
2023/12/27 12:29:44;;;;;;;2.77;1.67;;;;;;;;;;5022531;28;20250;-27
2023/12/27 12:32:13;;;;;;;4.63;2.00;;;;;;;;;;5006820;28;20219;-29
2023/12/27 12:34:40;;;;;;;4.13;1.70;;;;;;;;;;5016146;28;20277;-25
2023/12/27 12:37:08;;;;;;;1.50;1.40;;;;;;;;;;5002820;28;20211;-26
2023/12/27 12:39:35;;;;;;;3.67;1.50;;;;;;;;;;5007980;28;20202;-26
2023/12/27 12:42:03;;;;;;;7.03;1.70;;;;;;;;;;5021194;28;20231;-27
2023/12/27 12:44:32;;;;;;;2.77;1.50;;;;;;;;;;5016918;28;20237;-26
2023/12/27 12:46:59;;;;;;;3.23;1.77;;;;;;;;;;5019250;28;20658;-27
2023/12/27 12:49:26;;;;;;;3.07;1.50;;;;;;;;;;5012775;28;20258;-28
2023/12/27 12:51:54;;;;;;;1.97;1.37;;;;;;;;;;5007655;28;20290;-26
2023/12/27 12:54:21;;;;;;;1.77;1.37;;;;;;;;;;5011995;28;20314;-27
2023/12/27 12:56:48;;;;;;;2.83;1.40;;;;;;;;;;5021153;28;20222;-28
2023/12/27 12:59:17;;;;;;;2.77;1.60;;;;;;;;;;5023648;28;20227;-29
2023/12/27 13:01:44;;;;;;;3.33;1.80;;;;;;;;;;5003054;28;20208;-27
2023/12/27 13:04:11;;;;;;;2.83;1.63;;;;;;;;;;5008460;28;20256;-28
2023/12/27 13:06:38;;;;;;;3.73;1.70;;;;;;;;;;5005505;28;20294;-28
2023/12/27 13:09:07;;;;;;;2.50;1.70;;;;;;;;;;4997719;28;20254;-28
2023/12/27 13:11:34;;;;;;;3.50;2.07;;;;;;;;;;5028011;28;20260;-28
2023/12/27 13:14:01;;;;;;;2.93;1.57;;;;;;;;;;5011837;28;20310;-27
2023/12/27 13:16:30;;;;;;;1.70;1.50;;;;;;;;;;5002988;28;20218;-28
2023/12/27 13:18:59;;;;;;;3.17;1.57;;;;;;;;;;5010568;28;20211;-28
2023/12/27 13:21:28;;;;;;;3.67;1.70;;;;;;;;;;5016244;28;20207;-26
2023/12/27 13:23:55;;;;;;;4.03;2.00;;;;;;;;;;5019318;28;20233;-26
2023/12/27 13:26:22;;;;;;;1.87;1.50;;;;;;;;;;5012630;28;20290;-27
2023/12/27 13:28:50;;;;;;;3.43;1.70;;;;;;;;;;5011692;28;20223;-28
2023/12/27 13:31:19;;;;;;;2.70;1.60;;;;;;;;;;5007105;28;20291;-25
2023/12/27 13:33:48;;;;;;;2.17;1.80;;;;;;;;;;5010181;28;20214;-26
2023/12/27 13:36:15;;;;;;;2.30;1.83;;;;;;;;;;5002283;28;20222;-27
2023/12/27 13:38:42;;;;;;;3.73;1.60;;;;;;;;;;5001690;28;20209;-28
2023/12/27 13:41:09;;;;;;;2.70;1.70;;;;;;;;;;5011235;28;20291;-26
2023/12/27 13:43:37;;;;;;;5.07;1.63;;;;;;;;;;5025844;28;20202;-28
2023/12/27 13:46:05;;;;;;;2.90;1.83;;;;;;;;;;5004273;28;20295;-28
2023/12/27 13:48:34;;;;;;;4.07;2.03;;;;;;;;;;5019213;28;20235;-28
2023/12/27 13:51:02;;;;;;;2.87;1.73;;;;;;;;;;5007423;28;20615;-26
2023/12/27 13:53:30;;;;;;;4.10;2.13;;;;;;;;;;5005941;28;20310;-26
2023/12/27 13:55:57;;;;;;;5.00;2.13;;;;;;;;;;5019734;28;20223;-28
2023/12/27 13:58:24;;;;;;;2.97;1.93;;;;;;;;;;5016824;28;20199;-27
2023/12/27 14:00:51;;;;;;;2.30;1.90;;;;;;;;;;5006410;28;20221;-28
2023/12/27 14:03:18;;;;;;;2.10;1.90;;;;;;;;;;5004318;28;20217;-26
2023/12/27 14:05:45;;;;;;;4.13;1.90;;;;;;;;;;5006029;28;20765;-27
2023/12/27 14:08:14;;;;;;;3.13;2.10;;;;;;;;;;4996534;28;20207;-27
2023/12/27 14:10:41;;;;;;;3.03;2.43;;;;;;;;;;5007766;28;20214;-27
2023/12/27 14:13:08;;;;;;;2.27;1.97;;;;;;;;;;5011218;28;20203;-26
2023/12/27 14:15:36;;;;;;;2.93;1.93;;;;;;;;;;5007208;28;20599;-26
2023/12/27 14:18:04;;;;;;;3.13;2.00;;;;;;;;;;5010734;28;20217;-28
2023/12/27 14:20:32;;;;;;;4.90;2.50;;;;;;;;;;5012001;28;20226;-26
2023/12/27 14:22:59;;;;;;;7.50;4.43;;;;;;;;;;5008756;28;20206;-27
2023/12/27 14:25:30;;;;;;;9.03;4.37;;;;;;;;;;5018157;28;20314;-28
2023/12/27 14:27:57;;;;;;;6.03;3.10;;;;;;;;;;5025270;28;20274;-27
2023/12/27 14:30:26;;;;;;;4.67;2.77;;;;;;;;;;5019309;28;20222;-28
2023/12/27 14:32:53;;;;;;;4.10;2.53;;;;;;;;;;5007614;28;20307;-28
2023/12/27 14:35:20;;;;;;;5.23;2.40;;;;;;;;;;5019784;28;20284;-26
2023/12/27 14:37:48;;;;;;;6.23;2.87;;;;;;;;;;5017138;28;20211;-29
2023/12/27 14:40:15;;;;;;;6.70;4.33;;;;;;;;;;5007831;28;20246;-25
2023/12/27 14:42:45;;;;;;;6.30;3.83;;;;;;;;;;5014704;28;20221;-28
2023/12/27 14:45:13;;;;;;;4.70;3.10;;;;;;;;;;5008261;28;20232;-26